createdAt,value
2023-02-16T00:02:32.846Z,15.64
2023-02-16T00:05:31.286Z,15.55
2023-02-16T00:08:06.525Z,15.56
2023-02-16T00:11:10.393Z,15.56
2023-02-16T00:13:57.676Z,15.55
2023-02-16T00:16:39.205Z,15.54
2023-02-16T00:19:42.817Z,15.50
2023-02-16T00:22:19.515Z,15.51
2023-02-16T00:24:56.057Z,15.49
2023-02-16T00:27:39.928Z,15.48
2023-02-16T00:30:26.295Z,15.41
2023-02-16T00:33:24.270Z,15.40
2023-02-16T00:36:21.744Z,15.40
2023-02-16T00:39:25.691Z,15.34
2023-02-16T00:42:27.128Z,15.30
2023-02-16T00:45:30.132Z,15.22
2023-02-16T00:48:12.591Z,15.25
2023-02-16T00:50:58.480Z,15.24
2023-02-16T00:53:38.226Z,15.26
2023-02-16T00:56:35.361Z,15.25
2023-02-16T00:59:31.566Z,15.21
2023-02-16T01:02:09.164Z,15.19
2023-02-16T01:04:59.259Z,15.19
2023-02-16T01:07:59.400Z,15.19
2023-02-16T01:11:10.920Z,15.15
2023-02-16T01:13:58.649Z,15.15
2023-02-16T01:16:57.602Z,15.05
2023-02-16T01:19:47.687Z,15.03
2023-02-16T01:22:40.016Z,14.98
2023-02-16T01:25:21.420Z,14.94
2023-02-16T01:28:16.521Z,14.89
2023-02-16T01:31:14.483Z,14.86
2023-02-16T01:33:57.147Z,14.79
2023-02-16T01:36:42.299Z,14.76
2023-02-16T01:39:27.347Z,14.80
2023-02-16T01:42:29.907Z,14.79
2023-02-16T01:46:00.683Z,14.82
2023-02-16T01:48:41.272Z,14.79
2023-02-16T01:51:51.284Z,14.71
2023-02-16T01:54:49.789Z,14.65
2023-02-16T01:57:36.086Z,14.65
2023-02-16T02:00:52.132Z,14.64
2023-02-16T02:04:11.789Z,14.69
2023-02-16T02:06:52.201Z,14.65
2023-02-16T02:09:44.337Z,14.61
2023-02-16T02:12:59.254Z,14.58
2023-02-16T02:15:46.743Z,14.60
2023-02-16T02:18:49.070Z,14.56
2023-02-16T02:22:18.386Z,14.58
2023-02-16T02:25:22.239Z,14.55
2023-02-16T02:28:31.342Z,14.56
2023-02-16T02:31:39.150Z,14.55
2023-02-16T02:34:39.251Z,14.50
2023-02-16T02:37:50.917Z,14.44
2023-02-16T02:40:55.922Z,14.43
2023-02-16T02:44:02.287Z,14.39
2023-02-16T02:47:07.088Z,14.42
2023-02-16T02:50:04.010Z,14.43
2023-02-16T02:52:50.386Z,14.39
2023-02-16T02:56:07.097Z,14.41
2023-02-16T03:02:41.953Z,14.25
2023-02-16T03:05:13.977Z,14.35
2023-02-16T03:07:47.779Z,14.39
2023-02-16T03:10:45.094Z,14.38
2023-02-16T03:13:38.513Z,14.35
2023-02-16T03:16:13.963Z,14.34
2023-02-16T03:19:02.754Z,14.30
2023-02-16T03:22:04.905Z,14.15
2023-02-16T03:24:52.434Z,14.16
2023-02-16T03:27:56.521Z,14.16
2023-02-16T03:30:37.207Z,14.16
2023-02-16T03:33:11.419Z,14.15
2023-02-16T03:35:40.219Z,14.15
2023-02-16T03:38:09.419Z,14.16
2023-02-16T03:40:45.152Z,14.06
2023-02-16T03:43:19.645Z,14.05
2023-02-16T03:46:04.863Z,14.06
2023-02-16T03:48:32.881Z,14.03
2023-02-16T03:51:04.526Z,14.05
2023-02-16T03:53:39.540Z,14.04
2023-02-16T03:56:12.890Z,14.05
2023-02-16T03:58:41.028Z,14.03
2023-02-16T04:01:09.442Z,13.86
2023-02-16T04:03:41.080Z,13.92
2023-02-16T04:06:10.838Z,13.91
2023-02-16T04:08:39.771Z,13.94
2023-02-16T04:11:31.420Z,13.94
2023-02-16T04:14:07.076Z,13.91
2023-02-16T04:16:40.712Z,13.92
2023-02-16T04:19:08.868Z,13.89
2023-02-16T04:21:39.787Z,13.91
2023-02-16T04:24:14.316Z,13.83
2023-02-16T04:26:46.374Z,13.80
2023-02-16T04:29:17.577Z,13.76
2023-02-16T04:31:48.858Z,13.74
2023-02-16T04:34:42.844Z,13.72
2023-02-16T04:37:12.087Z,13.68
2023-02-16T04:39:41.996Z,13.68
2023-02-16T04:42:18.891Z,13.65
2023-02-16T04:44:54.867Z,13.68
2023-02-16T04:47:30.615Z,13.67
2023-02-16T04:50:04.709Z,13.64
2023-02-16T04:52:59.511Z,13.61
2023-02-16T04:55:32.124Z,13.59
2023-02-16T04:58:25.208Z,13.55
2023-02-16T05:01:04.523Z,13.58
2023-02-16T05:03:37.593Z,13.57
2023-02-16T05:06:12.297Z,13.51
2023-02-16T05:08:44.715Z,13.57
2023-02-16T05:11:37.509Z,13.53
2023-02-16T05:14:24.058Z,13.54
2023-02-16T05:16:55.624Z,13.48
2023-02-16T05:19:23.529Z,13.51
2023-02-16T05:22:04.094Z,13.43
2023-02-16T05:24:33.291Z,13.48
2023-02-16T05:27:13.040Z,13.48
2023-02-16T05:29:42.391Z,13.50
2023-02-16T05:32:32.456Z,13.43
2023-02-16T05:35:00.911Z,13.42
2023-02-16T05:37:29.058Z,13.48
2023-02-16T05:39:57.417Z,13.46
2023-02-16T05:42:28.462Z,13.42
2023-02-16T05:44:59.747Z,13.46
2023-02-16T05:47:28.128Z,13.46
2023-02-16T05:50:01.484Z,13.43
2023-02-16T05:52:29.771Z,13.45
2023-02-16T05:55:00.259Z,13.44
2023-02-16T05:57:28.728Z,13.50
2023-02-16T05:59:57.019Z,13.44
2023-02-16T06:02:30.735Z,13.47
2023-02-16T06:05:03.301Z,13.48
2023-02-16T06:07:38.778Z,13.48
2023-02-16T06:10:14.869Z,13.47
2023-02-16T06:12:51.880Z,13.41
2023-02-16T06:15:23.777Z,13.37
2023-02-16T06:18:01.499Z,13.46
2023-02-16T06:20:33.585Z,13.40
2023-02-16T06:23:11.748Z,13.42
2023-02-16T06:25:45.323Z,13.40
2023-02-16T06:30:55.032Z,13.37
2023-02-16T06:33:23.139Z,13.37
2023-02-16T06:35:52.222Z,13.35
2023-02-16T06:38:23.730Z,13.39
2023-02-16T06:40:55.698Z,13.35
2023-02-16T06:43:27.181Z,13.35
2023-02-16T06:45:56.457Z,13.37
2023-02-16T06:48:24.703Z,13.38
2023-02-16T06:50:53.312Z,13.31
2023-02-16T06:53:21.221Z,13.30
2023-02-16T06:55:54.963Z,13.29
2023-02-16T06:58:22.228Z,13.21
2023-02-16T07:00:50.198Z,13.21
2023-02-16T07:03:21.054Z,13.27
2023-02-16T07:05:50.049Z,13.18
2023-02-16T07:08:18.268Z,13.22
2023-02-16T07:10:51.311Z,13.30
2023-02-16T07:13:22.220Z,13.26
2023-02-16T07:15:53.222Z,13.29
2023-02-16T07:18:23.864Z,13.30
2023-02-16T07:20:55.030Z,13.28
2023-02-16T07:23:34.441Z,13.35
2023-02-16T07:26:04.995Z,13.41
2023-02-16T07:28:44.544Z,13.37
2023-02-16T07:31:16.817Z,13.42
2023-02-16T07:33:47.391Z,13.46
2023-02-16T07:36:29.448Z,13.50
2023-02-16T07:39:03.597Z,13.53
2023-02-16T07:41:34.630Z,13.47
2023-02-16T07:44:24.420Z,13.54
2023-02-16T07:49:56.624Z,13.58
2023-02-16T07:52:32.257Z,13.64
2023-02-16T07:55:18.755Z,13.65
2023-02-16T07:58:04.078Z,13.72
2023-02-16T08:03:47.459Z,13.68
2023-02-16T08:06:32.168Z,13.74
2023-02-16T08:09:15.509Z,13.75
2023-02-16T08:12:11.249Z,13.91
2023-02-16T08:15:08.387Z,14.04
2023-02-16T08:17:46.458Z,14.12
2023-02-16T08:20:45.170Z,14.20
2023-02-16T08:23:29.517Z,14.29
2023-02-16T08:25:59.545Z,14.43
2023-02-16T08:28:29.158Z,14.54
2023-02-16T08:34:12.422Z,14.76
2023-02-16T08:39:50.945Z,15.03
2023-02-16T08:42:30.082Z,15.14
2023-02-16T08:45:15.113Z,15.20
2023-02-16T08:47:44.938Z,15.33
2023-02-16T08:50:31.422Z,15.38
2023-02-16T08:53:30.930Z,15.36
2023-02-16T08:56:00.271Z,15.38
2023-02-16T08:58:28.250Z,15.37
2023-02-16T09:03:52.144Z,15.45
2023-02-16T09:06:23.356Z,15.53
2023-02-16T09:09:02.970Z,15.61
2023-02-16T09:11:55.588Z,15.66
2023-02-16T09:14:45.194Z,15.74
2023-02-16T09:17:24.017Z,15.75
2023-02-16T09:20:13.152Z,15.73
2023-02-16T09:22:55.951Z,15.79
2023-02-16T09:28:43.187Z,15.89
2023-02-16T09:31:48.897Z,15.96
2023-02-16T09:34:36.846Z,16.05
2023-02-16T09:37:29.688Z,16.09
2023-02-16T09:40:26.136Z,16.17
2023-02-16T09:43:30.043Z,16.18
2023-02-16T09:46:22.687Z,16.27
2023-02-16T09:48:58.884Z,16.33
2023-02-16T09:51:47.258Z,16.35
2023-02-16T09:54:35.186Z,16.46
2023-02-16T09:57:39.009Z,16.35
2023-02-16T10:00:45.611Z,16.45
2023-02-16T10:04:06.141Z,16.53
2023-02-16T10:07:02.453Z,16.64
2023-02-16T10:13:10.956Z,16.77
2023-02-16T10:15:44.533Z,16.85
2023-02-16T10:21:40.907Z,16.83
2023-02-16T10:27:13.106Z,16.91
2023-02-16T10:30:03.250Z,17.00
2023-02-16T10:33:16.185Z,16.84
2023-02-16T10:36:02.297Z,16.90
2023-02-16T10:42:10.143Z,16.95
2023-02-16T10:45:15.900Z,17.06
2023-02-16T10:48:19.189Z,16.99
2023-02-16T10:51:16.381Z,17.11
2023-02-16T10:54:02.925Z,17.15
2023-02-16T10:57:32.618Z,17.29
2023-02-16T11:03:48.390Z,17.38
2023-02-16T11:06:31.919Z,17.44
2023-02-16T11:09:18.884Z,17.51
2023-02-16T11:12:02.216Z,17.56
2023-02-16T11:14:42.266Z,17.45
2023-02-16T11:17:27.789Z,17.67
2023-02-16T11:20:26.066Z,17.74
2023-02-16T11:23:43.435Z,17.80
2023-02-16T11:26:12.391Z,17.87
2023-02-16T11:28:48.606Z,17.95
2023-02-16T11:31:40.340Z,18.00
2023-02-16T11:34:41.517Z,18.07
2023-02-16T11:37:28.287Z,18.12
2023-02-16T11:40:26.739Z,18.14
2023-02-16T11:42:58.008Z,18.21
2023-02-16T11:45:38.935Z,18.28
2023-02-16T11:48:13.025Z,18.19
2023-02-16T11:51:03.465Z,18.23
2023-02-16T11:53:39.006Z,18.27
2023-02-16T11:56:31.363Z,18.26
2023-02-16T11:59:29.327Z,18.36
2023-02-16T12:02:21.300Z,18.43
2023-02-16T12:05:17.610Z,18.46
2023-02-16T12:07:51.851Z,18.37
2023-02-16T12:10:39.207Z,18.20
2023-02-16T12:13:41.767Z,18.31
2023-02-16T12:16:52.498Z,18.24
2023-02-16T12:19:48.558Z,18.33
2023-02-16T12:22:49.372Z,18.33
2023-02-16T12:26:18.260Z,18.33
2023-02-16T12:29:27.740Z,18.33
2023-02-16T12:32:33.080Z,18.46
2023-02-16T12:35:39.760Z,18.52
2023-02-16T12:38:32.321Z,18.64
2023-02-16T12:41:42.099Z,18.64
2023-02-16T12:44:33.824Z,18.49
2023-02-16T12:47:20.953Z,18.59
2023-02-16T12:50:24.261Z,18.73
2023-02-16T12:53:38.843Z,18.71
2023-02-16T12:56:25.447Z,18.51
2023-02-16T12:59:15.079Z,18.89
2023-02-16T13:01:51.731Z,18.93
2023-02-16T13:04:37.196Z,19.05
2023-02-16T13:07:41.682Z,19.05
2023-02-16T13:10:34.940Z,18.96
2023-02-16T13:13:18.710Z,19.11
2023-02-16T13:16:45.448Z,19.35
2023-02-16T13:20:01.653Z,19.27
2023-02-16T13:23:17.267Z,19.22
2023-02-16T13:26:11.604Z,19.28
2023-02-16T13:29:29.817Z,19.32
2023-02-16T13:32:34.732Z,19.49
2023-02-16T13:35:26.753Z,19.61
2023-02-16T13:38:11.593Z,19.79
2023-02-16T13:41:03.963Z,20.06
2023-02-16T13:43:37.638Z,19.94
2023-02-16T13:46:16.780Z,20.06
2023-02-16T13:49:06.885Z,20.39
2023-02-16T13:51:50.928Z,20.16
2023-02-16T13:54:44.328Z,19.91
2023-02-16T13:58:03.658Z,20.13
2023-02-16T14:04:00.937Z,20.50
2023-02-16T14:09:48.963Z,20.36
2023-02-16T14:12:37.905Z,20.26
2023-02-16T14:18:52.302Z,20.44
2023-02-16T14:21:46.535Z,20.59
2023-02-16T14:24:53.397Z,20.24
2023-02-16T14:30:57.540Z,20.15
2023-02-16T14:37:38.728Z,19.91
2023-02-16T14:40:59.656Z,19.87
2023-02-16T14:43:57.113Z,19.10
2023-02-16T14:46:56.546Z,19.05
2023-02-16T14:50:04.060Z,18.81
2023-02-16T14:53:16.518Z,18.65
2023-02-16T14:56:37.649Z,18.75
2023-02-16T14:59:33.308Z,18.83
2023-02-16T15:02:54.389Z,18.45
2023-02-16T15:05:53.090Z,18.17
2023-02-16T15:08:55.466Z,18.64
2023-02-16T15:12:09.700Z,18.13
2023-02-16T15:14:43.729Z,18.20
2023-02-16T15:17:48.279Z,17.67
2023-02-16T15:20:52.916Z,18.03
2023-02-16T15:27:02.967Z,17.88
2023-02-16T15:29:39.644Z,17.95
2023-02-16T15:32:12.461Z,18.21
2023-02-16T15:34:53.012Z,18.21
2023-02-16T15:37:43.856Z,17.91
2023-02-16T15:40:34.877Z,18.17
2023-02-16T15:43:31.327Z,18.14
2023-02-16T15:46:07.329Z,18.20
2023-02-16T15:51:25.691Z,17.87
2023-02-16T15:54:25.851Z,17.74
2023-02-16T15:57:16.196Z,17.97
2023-02-16T15:59:48.331Z,17.88
2023-02-16T16:02:16.075Z,17.86
2023-02-16T16:05:04.671Z,18.03
2023-02-16T16:07:41.609Z,17.97
2023-02-16T16:10:37.218Z,18.06
2023-02-16T16:13:21.206Z,17.94
2023-02-16T16:15:56.067Z,18.12
2023-02-16T16:18:51.813Z,17.88
2023-02-16T16:21:45.027Z,17.59
2023-02-16T16:24:21.390Z,17.35
2023-02-16T16:27:14.623Z,17.37
2023-02-16T16:29:58.229Z,17.32
2023-02-16T16:32:39.610Z,17.25
2023-02-16T16:35:35.102Z,17.23
2023-02-16T16:38:28.788Z,17.22
2023-02-16T16:41:04.769Z,16.85
2023-02-16T16:46:47.197Z,16.93
2023-02-16T16:49:23.839Z,17.16
2023-02-16T16:52:16.397Z,17.10
2023-02-16T16:54:54.782Z,16.94
2023-02-16T16:57:55.740Z,17.04
2023-02-16T17:00:42.625Z,16.86
2023-02-16T17:03:30.472Z,16.75
2023-02-16T17:06:11.612Z,16.80
2023-02-16T17:08:56.461Z,16.80
2023-02-16T17:11:39.796Z,16.63
2023-02-16T17:17:09.492Z,16.80
2023-02-16T17:19:42.506Z,16.69
2023-02-16T17:22:26.950Z,16.78
2023-02-16T17:24:55.383Z,16.79
2023-02-16T17:27:33.385Z,16.82
2023-02-16T17:30:17.526Z,16.92
2023-02-16T17:32:53.766Z,16.80
2023-02-16T17:35:26.029Z,16.51
2023-02-16T17:37:58.777Z,16.79
2023-02-16T17:40:27.724Z,16.77
2023-02-16T17:43:02.262Z,16.73
2023-02-16T17:45:33.136Z,16.66
2023-02-16T17:50:57.298Z,16.79
2023-02-16T17:53:46.568Z,16.70
2023-02-16T17:56:26.575Z,16.66
2023-02-16T17:59:05.754Z,16.65
2023-02-16T18:01:39.318Z,16.77
2023-02-16T18:04:16.263Z,16.68
2023-02-16T18:07:03.756Z,16.61
2023-02-16T18:09:41.306Z,16.55
2023-02-16T18:15:29.724Z,16.07
2023-02-16T18:18:05.417Z,16.36
2023-02-16T18:20:49.379Z,16.38
2023-02-16T18:23:23.964Z,16.15
2023-02-16T18:26:10.788Z,16.17
2023-02-16T18:31:31.656Z,16.14
2023-02-16T18:34:06.278Z,16.23
2023-02-16T18:36:44.315Z,16.30
2023-02-16T18:39:28.059Z,16.12
2023-02-16T18:41:55.805Z,16.16
2023-02-16T18:44:28.500Z,16.09
2023-02-16T18:47:02.136Z,15.98
2023-02-16T18:52:19.171Z,15.85
2023-02-16T18:54:50.022Z,16.16
2023-02-16T18:57:29.630Z,15.90
2023-02-16T19:00:00.353Z,15.98
2023-02-16T19:02:32.920Z,16.11
2023-02-16T19:05:09.822Z,16.23
2023-02-16T19:07:59.151Z,16.15
2023-02-16T19:10:33.605Z,16.21
2023-02-16T19:13:10.050Z,16.32
2023-02-16T19:15:44.058Z,16.28
2023-02-16T19:18:36.135Z,16.11
2023-02-16T19:21:10.432Z,15.88
2023-02-16T19:23:48.204Z,15.95
2023-02-16T19:26:29.636Z,15.61
2023-02-16T19:29:02.860Z,15.77
2023-02-16T19:31:37.669Z,15.68
2023-02-16T19:34:18.203Z,15.81
2023-02-16T19:37:00.777Z,15.34
2023-02-16T19:39:58.064Z,15.76
2023-02-16T19:42:40.509Z,15.51
2023-02-16T19:45:20.615Z,15.67
2023-02-16T19:48:04.578Z,15.82
2023-02-16T19:50:41.117Z,15.70
2023-02-16T19:56:27.494Z,15.73
2023-02-16T19:58:58.458Z,15.72
2023-02-16T20:01:51.049Z,15.80
2023-02-16T20:04:38.992Z,15.88
2023-02-16T20:10:09.721Z,16.03
2023-02-16T20:12:57.256Z,16.06
2023-02-16T20:15:28.709Z,16.08
2023-02-16T20:18:12.804Z,16.08
2023-02-16T20:21:33.739Z,16.11
2023-02-16T20:24:15.323Z,16.11
2023-02-16T20:27:06.554Z,16.11
2023-02-16T20:29:42.327Z,16.12
2023-02-16T20:32:32.911Z,16.11
2023-02-16T20:35:17.144Z,16.08
2023-02-16T20:37:54.459Z,16.08
2023-02-16T20:40:39.918Z,16.03
2023-02-16T20:43:23.074Z,16.05
2023-02-16T20:46:09.911Z,16.02
2023-02-16T20:48:43.306Z,16.00
2023-02-16T20:51:24.626Z,15.99
2023-02-16T20:54:05.818Z,15.92
2023-02-16T20:56:40.099Z,15.89
2023-02-16T20:59:44.964Z,15.84
2023-02-16T21:02:22.892Z,15.81
2023-02-16T21:04:59.043Z,15.75
2023-02-16T21:07:37.801Z,15.70
2023-02-16T21:10:28.944Z,15.66
2023-02-16T21:13:22.010Z,15.67
2023-02-16T21:16:00.578Z,15.62
2023-02-16T21:18:40.630Z,15.61
2023-02-16T21:21:54.399Z,15.53
2023-02-16T21:24:31.416Z,15.50
2023-02-16T21:27:03.332Z,15.50
2023-02-16T21:29:42.087Z,15.47
2023-02-16T21:32:34.758Z,15.44
2023-02-16T21:35:26.263Z,15.43
2023-02-16T21:38:04.768Z,15.39
2023-02-16T21:44:15.065Z,15.27
2023-02-16T21:46:47.954Z,15.27
2023-02-16T21:49:55.231Z,15.27
2023-02-16T21:52:59.004Z,15.22
2023-02-16T22:01:56.327Z,15.12
2023-02-16T22:04:34.007Z,15.10
2023-02-16T22:07:27.375Z,15.04
2023-02-16T22:10:32.215Z,15.03
2023-02-16T22:13:08.913Z,15.04
2023-02-16T22:15:43.221Z,15.02
2023-02-16T22:18:18.660Z,14.99
2023-02-16T22:20:57.704Z,14.97
2023-02-16T22:23:45.662Z,14.88
2023-02-16T22:26:54.307Z,14.88
2023-02-16T22:29:27.369Z,14.89
2023-02-16T22:31:59.907Z,14.87
2023-02-16T22:34:44.512Z,14.82
2023-02-16T22:37:14.671Z,14.77
2023-02-16T22:39:45.125Z,14.77
2023-02-16T22:42:12.425Z,14.76
2023-02-16T22:44:47.776Z,14.73
2023-02-16T22:47:20.930Z,14.69
2023-02-16T22:49:50.396Z,14.69
2023-02-16T22:55:10.860Z,14.61
2023-02-16T22:57:46.827Z,14.64
2023-02-16T23:00:17.759Z,14.53
2023-02-16T23:02:51.046Z,14.55
2023-02-16T23:05:23.845Z,14.47
2023-02-16T23:08:27.354Z,14.40
2023-02-16T23:11:09.556Z,14.34
2023-02-16T23:14:17.487Z,14.30
2023-02-16T23:17:00.573Z,14.29
2023-02-16T23:19:51.424Z,14.30
2023-02-16T23:22:58.822Z,14.27
2023-02-16T23:25:35.172Z,14.19
2023-02-16T23:28:08.837Z,14.20
2023-02-16T23:30:56.319Z,14.19
2023-02-16T23:33:32.644Z,14.18
2023-02-16T23:36:13.205Z,14.19
2023-02-16T23:38:47.541Z,14.19
2023-02-16T23:41:29.581Z,14.16
2023-02-16T23:44:12.416Z,14.16
2023-02-16T23:46:58.215Z,14.04
2023-02-16T23:49:31.709Z,14.05
2023-02-16T23:52:15.852Z,14.03
2023-02-16T23:54:55.561Z,14.05
2023-02-16T23:57:30.995Z,14.02
